createdAt,value
2022-10-28T00:00:15.323Z,5.18
2022-10-28T00:02:42.326Z,4.85
2022-10-28T00:05:09.442Z,2.70
2022-10-28T00:07:36.460Z,4.18
2022-10-28T00:10:04.098Z,4.38
2022-10-28T00:12:31.097Z,3.28
2022-10-28T00:14:57.824Z,8.38
2022-10-28T00:19:51.240Z,4.38
2022-10-28T00:22:18.131Z,6.57
2022-10-28T00:24:44.875Z,5.15
2022-10-28T00:27:11.733Z,8.73
2022-10-28T00:29:38.666Z,10.80
2022-10-28T00:32:05.731Z,6.18
2022-10-28T00:34:32.527Z,5.30
2022-10-28T00:36:59.325Z,6.78
2022-10-28T00:39:27.592Z,5.68
2022-10-28T00:42:03.696Z,5.40
2022-10-28T00:44:40.060Z,7.03
2022-10-28T00:47:35.562Z,3.92
2022-10-28T00:50:24.219Z,4.18
2022-10-28T00:52:55.781Z,5.20
2022-10-28T00:55:23.635Z,4.75
2022-10-28T00:57:50.970Z,5.03
2022-10-28T01:00:18.100Z,5.43
2022-10-28T01:02:48.501Z,5.32
2022-10-28T01:05:19.942Z,4.60
2022-10-28T01:07:46.973Z,3.67
2022-10-28T01:10:15.291Z,3.05
2022-10-28T01:13:25.373Z,4.95
2022-10-28T01:16:17.674Z,5.30
2022-10-28T01:19:00.245Z,2.50
2022-10-28T01:21:39.564Z,1.73
2022-10-28T01:24:20.516Z,2.95
2022-10-28T01:27:08.753Z,2.47
2022-10-28T01:29:54.282Z,2.83
2022-10-28T01:32:50.677Z,3.53
2022-10-28T01:35:48.122Z,2.03
2022-10-28T01:38:27.219Z,2.33
2022-10-28T01:41:16.335Z,2.80
2022-10-28T01:44:06.326Z,4.32
2022-10-28T01:46:42.273Z,2.28
2022-10-28T01:49:31.768Z,4.20
2022-10-28T01:52:03.257Z,2.67
2022-10-28T01:54:33.558Z,1.92
2022-10-28T01:57:01.684Z,2.67
2022-10-28T01:59:29.455Z,2.53
2022-10-28T02:01:58.835Z,2.88
2022-10-28T02:04:26.166Z,2.25
2022-10-28T02:06:55.708Z,2.65
2022-10-28T02:09:25.593Z,1.90
2022-10-28T02:12:08.268Z,2.10
2022-10-28T02:14:44.341Z,4.22
2022-10-28T02:17:38.887Z,3.25
2022-10-28T02:20:11.808Z,2.20
2022-10-28T02:22:49.817Z,2.45
2022-10-28T02:25:28.621Z,1.60
2022-10-28T02:28:27.916Z,2.50
2022-10-28T02:31:00.391Z,3.97
2022-10-28T02:33:31.199Z,2.60
2022-10-28T02:36:04.084Z,2.97
2022-10-28T02:38:37.601Z,2.97
2022-10-28T02:41:28.569Z,4.93
2022-10-28T02:43:59.894Z,1.75
2022-10-28T02:46:29.832Z,3.15
2022-10-28T02:49:01.756Z,2.25
2022-10-28T02:51:52.622Z,2.22
2022-10-28T02:54:24.842Z,3.05
2022-10-28T02:56:52.329Z,2.53
2022-10-28T02:59:19.132Z,0.90
2022-10-28T03:01:46.034Z,1.30
2022-10-28T03:04:12.861Z,3.30
2022-10-28T03:06:39.727Z,4.57
2022-10-28T03:09:06.594Z,2.72
2022-10-28T03:11:34.125Z,2.08
2022-10-28T03:14:00.986Z,2.63
2022-10-28T03:16:28.346Z,4.57
2022-10-28T03:18:55.341Z,4.30
2022-10-28T03:21:22.186Z,2.40
2022-10-28T03:23:48.977Z,1.27
2022-10-28T03:26:16.323Z,1.88
2022-10-28T03:28:43.168Z,3.55
2022-10-28T03:31:10.122Z,2.55
2022-10-28T03:33:36.870Z,1.25
2022-10-28T03:36:03.824Z,6.10
2022-10-28T03:38:30.931Z,3.05
2022-10-28T03:40:57.819Z,1.77
2022-10-28T03:43:24.838Z,2.45
2022-10-28T03:45:51.622Z,1.73
2022-10-28T03:48:18.375Z,3.90
2022-10-28T03:50:45.222Z,1.20
2022-10-28T03:53:12.015Z,2.35
2022-10-28T03:55:38.749Z,4.25
2022-10-28T03:58:05.629Z,4.97
2022-10-28T04:00:32.474Z,4.05
2022-10-28T04:02:59.317Z,2.15
2022-10-28T04:05:26.293Z,2.35
2022-10-28T04:07:54.213Z,3.63
2022-10-28T04:10:21.035Z,3.92
2022-10-28T04:12:47.900Z,2.20
2022-10-28T04:15:14.719Z,2.78
2022-10-28T04:17:41.473Z,1.60
2022-10-28T04:20:08.899Z,4.93
2022-10-28T04:22:35.688Z,1.92
2022-10-28T04:25:02.597Z,3.03
2022-10-28T04:27:29.394Z,1.83
2022-10-28T04:29:56.114Z,3.60
2022-10-28T04:32:22.821Z,2.47
2022-10-28T04:34:49.736Z,2.85
2022-10-28T04:37:19.696Z,1.90
2022-10-28T04:39:47.541Z,4.40
2022-10-28T04:42:14.476Z,4.03
2022-10-28T04:44:41.390Z,3.53
2022-10-28T04:47:08.179Z,1.50
2022-10-28T04:49:36.762Z,2.67
2022-10-28T04:52:05.801Z,3.60
2022-10-28T04:54:32.544Z,1.67
2022-10-28T04:56:59.285Z,2.80
2022-10-28T04:59:26.065Z,7.20
2022-10-28T05:01:53.002Z,4.90
2022-10-28T05:04:19.792Z,2.58
2022-10-28T05:06:46.682Z,4.75
2022-10-28T05:09:13.513Z,3.50
2022-10-28T05:11:40.317Z,3.22
2022-10-28T05:14:07.036Z,2.40
2022-10-28T05:16:33.896Z,6.63
2022-10-28T05:19:00.956Z,5.25
2022-10-28T05:21:27.925Z,3.25
2022-10-28T05:23:54.761Z,6.82
2022-10-28T05:26:21.527Z,5.68
2022-10-28T05:28:51.473Z,7.28
2022-10-28T05:31:18.488Z,3.92
2022-10-28T05:33:45.316Z,4.88
2022-10-28T05:36:12.051Z,6.63
2022-10-28T05:38:40.026Z,4.85
2022-10-28T05:41:06.885Z,3.88
2022-10-28T05:43:33.640Z,7.60
2022-10-28T05:46:00.529Z,3.28
2022-10-28T05:48:27.590Z,6.50
2022-10-28T05:50:54.435Z,4.07
2022-10-28T05:53:21.323Z,3.75
2022-10-28T05:55:48.194Z,7.78
2022-10-28T05:58:15.235Z,7.68
2022-10-28T06:00:42.116Z,4.70
2022-10-28T06:03:12.272Z,7.07
2022-10-28T06:05:41.851Z,4.97
2022-10-28T06:08:08.812Z,5.65
2022-10-28T06:10:35.718Z,5.22
2022-10-28T06:13:01.122Z,6.13
2022-10-28T06:15:27.907Z,7.90
2022-10-28T06:17:54.688Z,4.55
2022-10-28T06:20:21.596Z,5.93
2022-10-28T06:22:52.559Z,7.32
2022-10-28T06:25:23.416Z,10.27
2022-10-28T06:27:57.864Z,6.88
2022-10-28T06:30:26.141Z,5.55
2022-10-28T06:32:56.753Z,6.88
2022-10-28T06:35:23.802Z,6.60
2022-10-28T06:37:55.337Z,7.82
2022-10-28T06:40:25.821Z,9.65
2022-10-28T06:42:59.495Z,7.43
2022-10-28T06:45:27.781Z,7.90
2022-10-28T06:47:57.929Z,11.55
2022-10-28T06:50:25.164Z,12.90
2022-10-28T06:52:52.025Z,9.85
2022-10-28T06:55:18.873Z,8.52
2022-10-28T06:57:45.640Z,5.22
2022-10-28T07:00:13.162Z,7.97
2022-10-28T07:02:42.823Z,6.60
2022-10-28T07:05:12.109Z,6.57
2022-10-28T07:07:38.875Z,4.28
2022-10-28T07:10:06.918Z,5.47
2022-10-28T07:12:35.542Z,7.30
2022-10-28T07:15:02.545Z,6.55
2022-10-28T07:17:29.338Z,8.80
2022-10-28T07:19:56.206Z,5.65
2022-10-28T07:22:25.582Z,10.52
2022-10-28T07:24:52.736Z,8.75
2022-10-28T07:27:19.548Z,13.07
2022-10-28T07:29:46.390Z,7.32
2022-10-28T07:32:13.174Z,4.72
2022-10-28T07:34:40.038Z,5.53
2022-10-28T07:37:06.773Z,8.18
2022-10-28T07:39:33.570Z,7.30
2022-10-28T07:42:01.487Z,7.72
2022-10-28T07:44:28.932Z,6.45
2022-10-28T07:46:58.069Z,10.02
2022-10-28T07:49:25.417Z,7.10
2022-10-28T07:51:52.299Z,7.07
2022-10-28T07:54:19.172Z,10.82
2022-10-28T07:56:46.013Z,13.00
2022-10-28T07:59:12.817Z,11.52
2022-10-28T08:01:39.617Z,7.68
2022-10-28T08:04:06.701Z,14.73
2022-10-28T08:06:35.881Z,13.55
2022-10-28T08:09:03.593Z,15.50
2022-10-28T08:11:30.372Z,12.70
2022-10-28T08:13:57.449Z,12.13
2022-10-28T08:16:24.331Z,15.27
2022-10-28T08:18:53.151Z,16.02
2022-10-28T08:21:19.968Z,8.13
2022-10-28T08:23:47.168Z,15.85
2022-10-28T08:26:17.344Z,15.95
2022-10-28T08:28:44.275Z,15.37
2022-10-28T08:31:12.654Z,13.27
2022-10-28T08:33:42.426Z,17.45
2022-10-28T08:36:15.349Z,17.15
2022-10-28T08:38:47.476Z,15.65
2022-10-28T08:41:39.238Z,12.40
2022-10-28T08:44:24.793Z,10.60
2022-10-28T08:47:17.258Z,11.85
2022-10-28T08:49:49.259Z,12.27
2022-10-28T08:52:30.208Z,12.73
2022-10-28T08:55:21.461Z,9.20
2022-10-28T09:00:23.763Z,13.43
2022-10-28T09:03:11.803Z,12.68
2022-10-28T09:05:40.539Z,12.63
2022-10-28T09:08:17.773Z,10.45
2022-10-28T09:11:26.440Z,14.68
2022-10-28T09:14:15.671Z,10.52
2022-10-28T09:16:50.760Z,8.38
2022-10-28T09:19:24.858Z,7.60
2022-10-28T09:22:20.683Z,4.80
2022-10-28T09:25:21.699Z,6.93
2022-10-28T09:28:15.884Z,3.67
2022-10-28T09:30:59.863Z,4.35
2022-10-28T09:33:36.008Z,9.43
2022-10-28T09:36:08.137Z,7.57
2022-10-28T09:38:37.951Z,8.75
2022-10-28T09:41:10.546Z,11.98
2022-10-28T09:43:43.429Z,10.93
2022-10-28T09:46:16.407Z,13.65
2022-10-28T09:48:57.087Z,19.48
2022-10-28T09:51:27.328Z,16.05
2022-10-28T09:53:55.926Z,15.02
2022-10-28T09:56:23.024Z,13.43
2022-10-28T09:58:49.948Z,14.82
2022-10-28T10:01:20.442Z,13.32
2022-10-28T10:03:51.437Z,9.40
2022-10-28T10:08:51.062Z,9.20
2022-10-28T10:11:17.841Z,10.80
2022-10-28T10:13:45.539Z,8.40
2022-10-28T10:16:20.002Z,12.23
2022-10-28T10:18:50.682Z,10.30
2022-10-28T10:21:20.235Z,10.50
2022-10-28T10:23:47.043Z,15.30
2022-10-28T10:26:16.199Z,19.60
2022-10-28T10:28:48.723Z,14.13
2022-10-28T10:31:23.952Z,19.27
2022-10-28T10:34:01.423Z,20.10
2022-10-28T10:36:29.148Z,23.92
2022-10-28T10:38:57.792Z,19.67
2022-10-28T10:41:39.638Z,19.10
2022-10-28T10:44:21.613Z,18.73
2022-10-28T10:46:48.362Z,15.27
2022-10-28T10:49:15.873Z,14.68
2022-10-28T10:51:59.403Z,18.67
2022-10-28T10:54:27.938Z,21.55
2022-10-28T10:56:54.779Z,19.48
2022-10-28T10:59:25.925Z,15.10
2022-10-28T11:01:53.191Z,12.75
2022-10-28T11:04:22.534Z,17.60
2022-10-28T11:06:51.697Z,11.18
2022-10-28T11:09:46.589Z,13.68
2022-10-28T11:12:32.081Z,9.55
2022-10-28T11:15:23.571Z,11.00
2022-10-28T11:18:19.360Z,11.38
2022-10-28T11:21:05.760Z,11.77
2022-10-28T11:23:51.816Z,9.38
2022-10-28T11:26:19.263Z,9.40
2022-10-28T11:28:55.205Z,12.68
2022-10-28T11:31:32.077Z,9.55
2022-10-28T11:34:25.187Z,7.00
2022-10-28T11:37:17.521Z,9.45
2022-10-28T11:40:04.299Z,9.63
2022-10-28T11:42:36.761Z,7.03
2022-10-28T11:45:17.281Z,8.73
2022-10-28T11:47:46.891Z,13.20
2022-10-28T11:50:34.933Z,6.03
2022-10-28T11:53:16.781Z,5.53
2022-10-28T11:56:16.233Z,5.28
2022-10-28T11:58:45.712Z,5.50
2022-10-28T12:01:54.313Z,2.42
2022-10-28T12:04:51.623Z,2.90
2022-10-28T12:07:31.636Z,2.13
2022-10-28T12:10:07.638Z,2.10
2022-10-28T12:12:41.389Z,1.85
2022-10-28T12:15:15.848Z,1.13
2022-10-28T12:17:58.407Z,2.50
2022-10-28T12:21:13.696Z,1.65
2022-10-28T12:23:42.226Z,1.73
2022-10-28T12:26:14.273Z,0.60
2022-10-28T12:28:48.554Z,0.95
2022-10-28T12:31:28.321Z,1.27
2022-10-28T12:34:06.319Z,1.55
2022-10-28T12:36:37.955Z,0.10
2022-10-28T12:39:12.394Z,0.32
2022-10-28T12:42:03.643Z,0.63
2022-10-28T12:47:07.250Z,0.30
2022-10-28T12:49:42.194Z,0.10
2022-10-28T12:52:35.738Z,0.45
2022-10-28T12:57:59.853Z,0.47
2022-10-28T13:00:29.587Z,0.98
2022-10-28T13:03:05.556Z,1.55
2022-10-28T13:06:18.912Z,1.25
2022-10-28T13:09:04.232Z,0.47
2022-10-28T13:12:07.931Z,0.30
2022-10-28T13:14:50.696Z,0.40
2022-10-28T13:17:42.962Z,1.98
2022-10-28T13:20:23.165Z,0.40
2022-10-28T13:23:01.453Z,0.80
2022-10-28T13:25:49.516Z,1.75
2022-10-28T13:28:19.107Z,0.10
2022-10-28T13:31:00.936Z,0.10
2022-10-28T13:33:31.443Z,1.27
2022-10-28T13:36:17.401Z,1.65
2022-10-28T13:38:53.858Z,0.50
2022-10-28T13:41:34.702Z,0.38
2022-10-28T13:44:10.779Z,0.32
2022-10-28T13:46:59.224Z,5.25
2022-10-28T13:49:34.321Z,0.77
2022-10-28T13:52:21.604Z,0.30
2022-10-28T13:54:49.499Z,0.47
2022-10-28T13:57:34.990Z,0.40
2022-10-28T14:00:07.669Z,0.22
2022-10-28T14:02:40.280Z,0.80
2022-10-28T14:05:09.558Z,0.57
2022-10-28T14:07:38.895Z,0.63
2022-10-28T14:10:24.341Z,0.55
2022-10-28T14:13:20.477Z,1.65
2022-10-28T14:15:48.376Z,0.90
2022-10-28T14:18:41.656Z,2.03
2022-10-28T14:21:02.403Z,0.75
2022-10-28T14:23:29.180Z,0.60
2022-10-28T14:25:56.376Z,0.40
2022-10-28T14:28:28.911Z,1.30
2022-10-28T14:31:07.862Z,2.10
2022-10-28T14:33:41.529Z,0.30
2022-10-28T14:36:25.670Z,0.82
2022-10-28T14:39:13.467Z,1.67
2022-10-28T14:42:02.149Z,1.58
2022-10-28T14:44:51.055Z,1.20
2022-10-28T14:47:26.452Z,0.45
2022-10-28T14:50:01.928Z,1.20
2022-10-28T14:52:30.500Z,1.00
2022-10-28T14:55:03.040Z,1.33
2022-10-28T14:57:33.870Z,0.85
2022-10-28T15:00:08.018Z,0.50
2022-10-28T15:02:37.471Z,1.00
2022-10-28T15:05:15.255Z,1.77
2022-10-28T15:07:42.339Z,1.77
2022-10-28T15:10:18.950Z,1.38
2022-10-28T15:12:49.172Z,1.65
2022-10-28T15:15:22.606Z,1.47
2022-10-28T15:17:50.158Z,2.30
2022-10-28T15:20:32.000Z,1.15
2022-10-28T15:23:12.798Z,3.78
2022-10-28T15:25:39.646Z,0.85
2022-10-28T15:28:06.457Z,1.10
2022-10-28T15:30:35.189Z,2.67
2022-10-28T15:33:19.727Z,1.95
2022-10-28T15:35:47.350Z,0.75
2022-10-28T15:38:29.317Z,2.28
2022-10-28T15:40:57.112Z,1.00
2022-10-28T15:43:25.863Z,1.98
2022-10-28T15:45:52.679Z,1.40
2022-10-28T15:48:24.511Z,1.67
2022-10-28T15:51:14.187Z,1.38
2022-10-28T15:53:42.388Z,1.35
2022-10-28T15:56:15.098Z,2.80
2022-10-28T15:58:47.263Z,1.52
2022-10-28T16:01:35.662Z,1.85
2022-10-28T16:04:02.693Z,1.27
2022-10-28T16:06:31.694Z,2.45
2022-10-28T16:09:25.123Z,3.05
2022-10-28T16:11:54.436Z,2.17
2022-10-28T16:14:36.000Z,2.97
2022-10-28T16:17:18.042Z,1.73
2022-10-28T16:19:49.479Z,2.45
2022-10-28T16:22:18.437Z,1.92
2022-10-28T16:24:45.845Z,4.13
2022-10-28T16:27:25.988Z,1.65
2022-10-28T16:29:53.305Z,3.13
2022-10-28T16:32:35.386Z,1.98
2022-10-28T16:35:03.499Z,3.28
2022-10-28T16:37:32.336Z,1.25
2022-10-28T16:39:59.246Z,1.27
2022-10-28T16:42:26.255Z,2.90
2022-10-28T16:44:53.212Z,2.58
2022-10-28T16:47:21.783Z,3.33
2022-10-28T16:49:52.643Z,2.80
2022-10-28T16:52:28.249Z,2.40
2022-10-28T16:54:55.550Z,1.90
2022-10-28T16:59:54.867Z,2.25
2022-10-28T17:02:30.999Z,2.55
2022-10-28T17:04:58.746Z,1.58
2022-10-28T17:07:26.620Z,1.77
2022-10-28T17:09:53.617Z,1.50
2022-10-28T17:12:23.408Z,2.50
2022-10-28T17:14:50.461Z,1.52
2022-10-28T17:17:17.427Z,3.03
2022-10-28T17:19:45.814Z,3.50
2022-10-28T17:22:13.480Z,1.90
2022-10-28T17:24:40.329Z,15.80
2022-10-28T17:27:07.446Z,16.58
2022-10-28T17:29:34.366Z,4.20
2022-10-28T17:32:02.378Z,2.47
2022-10-28T17:34:29.270Z,5.50
2022-10-28T17:36:56.174Z,6.55
2022-10-28T17:39:26.218Z,13.18
2022-10-28T17:41:53.995Z,3.70
2022-10-28T17:44:20.934Z,6.20
2022-10-28T17:46:51.552Z,8.20
2022-10-28T17:49:18.771Z,4.70
2022-10-28T17:51:45.596Z,3.30
2022-10-28T17:54:12.508Z,2.50
2022-10-28T17:56:42.123Z,3.67
2022-10-28T17:59:09.261Z,8.95
2022-10-28T18:01:36.167Z,4.45
2022-10-28T18:04:03.808Z,3.17
2022-10-28T18:06:30.601Z,1.73
2022-10-28T18:08:58.403Z,2.90
2022-10-28T18:11:26.592Z,4.78
2022-10-28T18:13:56.013Z,1.80
2022-10-28T18:16:25.354Z,3.45
2022-10-28T18:18:53.414Z,1.50
2022-10-28T18:21:20.872Z,5.00
2022-10-28T18:23:52.448Z,2.78
2022-10-28T18:26:19.549Z,4.50
2022-10-28T18:28:46.924Z,5.72
2022-10-28T18:31:16.232Z,5.57
2022-10-28T18:33:43.745Z,2.38
2022-10-28T18:36:16.206Z,4.88
2022-10-28T18:38:43.374Z,1.88
2022-10-28T18:41:14.688Z,2.80
2022-10-28T18:43:42.030Z,1.48
2022-10-28T18:46:09.079Z,2.65
2022-10-28T18:48:36.098Z,3.67
2022-10-28T18:51:09.525Z,4.53
2022-10-28T18:53:41.672Z,3.20
2022-10-28T18:56:13.629Z,3.05
2022-10-28T18:58:40.811Z,3.50
2022-10-28T19:01:12.339Z,4.20
2022-10-28T19:03:39.406Z,4.13
2022-10-28T19:06:09.430Z,4.10
2022-10-28T19:08:36.264Z,9.40
2022-10-28T19:11:03.789Z,5.22
2022-10-28T19:13:36.161Z,4.32
2022-10-28T19:16:03.623Z,2.33
2022-10-28T19:18:32.525Z,5.72
2022-10-28T19:21:08.365Z,4.68
2022-10-28T19:23:35.200Z,4.18
2022-10-28T19:26:03.875Z,3.17
2022-10-28T19:28:31.465Z,5.10
2022-10-28T19:31:03.772Z,1.45
2022-10-28T19:33:31.531Z,2.90
2022-10-28T19:36:03.036Z,5.50
2022-10-28T19:38:31.475Z,4.80
2022-10-28T19:41:06.650Z,4.60
2022-10-28T19:43:33.586Z,5.43
2022-10-28T19:46:07.548Z,6.47
2022-10-28T19:48:34.430Z,7.07
2022-10-28T19:51:01.176Z,3.03
2022-10-28T19:53:28.007Z,4.57
2022-10-28T19:55:59.617Z,4.22
2022-10-28T19:58:27.369Z,4.20
2022-10-28T20:01:02.316Z,3.38
2022-10-28T20:03:34.268Z,3.88
2022-10-28T20:06:04.525Z,3.97
2022-10-28T20:08:34.001Z,6.00
2022-10-28T20:11:02.915Z,5.43
2022-10-28T20:13:30.019Z,2.08
2022-10-28T20:15:57.289Z,6.32
2022-10-28T20:18:24.395Z,3.85
2022-10-28T20:20:51.228Z,6.78
2022-10-28T20:23:17.961Z,2.85
2022-10-28T20:25:52.297Z,6.30
2022-10-28T20:28:19.280Z,3.65
2022-10-28T20:31:02.178Z,5.63
2022-10-28T20:33:29.900Z,5.28
2022-10-28T20:35:57.182Z,9.18
2022-10-28T20:38:25.213Z,5.57
2022-10-28T20:40:57.126Z,7.47
2022-10-28T20:43:25.628Z,9.55
2022-10-28T20:45:56.122Z,5.07
2022-10-28T20:48:23.020Z,7.10
2022-10-28T20:50:54.703Z,7.07
2022-10-28T20:53:23.411Z,6.38
2022-10-28T20:55:51.737Z,5.57
2022-10-28T20:58:22.561Z,3.92
2022-10-28T21:00:50.727Z,3.63
2022-10-28T21:03:17.537Z,8.35
2022-10-28T21:05:44.472Z,10.55
2022-10-28T21:08:11.889Z,4.40
2022-10-28T21:10:39.734Z,7.30
2022-10-28T21:13:07.169Z,8.80
2022-10-28T21:15:35.571Z,7.53
2022-10-28T21:18:02.761Z,6.85
2022-10-28T21:20:29.715Z,6.28
2022-10-28T21:22:56.739Z,10.48
2022-10-28T21:25:23.781Z,5.22
2022-10-28T21:27:50.590Z,4.22
2022-10-28T21:30:17.927Z,6.63
2022-10-28T21:32:44.759Z,9.02
2022-10-28T21:35:11.556Z,8.30
2022-10-28T21:37:38.323Z,6.40
2022-10-28T21:40:05.826Z,9.63
2022-10-28T21:42:32.768Z,9.13
2022-10-28T21:44:59.567Z,3.55
2022-10-28T21:47:27.053Z,4.25
2022-10-28T21:49:54.082Z,3.75
2022-10-28T21:52:21.056Z,6.40
2022-10-28T21:54:47.820Z,7.03
2022-10-28T21:57:14.601Z,5.60
2022-10-28T21:59:41.387Z,4.25
2022-10-28T22:02:08.194Z,6.32
2022-10-28T22:04:35.818Z,5.30
2022-10-28T22:07:02.879Z,4.78
2022-10-28T22:09:32.376Z,5.72
2022-10-28T22:12:01.771Z,4.88
2022-10-28T22:14:29.048Z,3.30
2022-10-28T22:16:55.834Z,6.13
2022-10-28T22:19:22.706Z,6.18
2022-10-28T22:21:49.625Z,6.43
2022-10-28T22:24:16.538Z,9.57
2022-10-28T22:26:43.500Z,6.22
2022-10-28T22:29:10.407Z,5.50
2022-10-28T22:31:37.219Z,5.20
2022-10-28T22:34:05.429Z,7.20
2022-10-28T22:36:32.392Z,8.80
2022-10-28T22:38:59.230Z,8.25
2022-10-28T22:41:30.646Z,6.70
2022-10-28T22:43:59.589Z,9.55
2022-10-28T22:46:28.510Z,8.82
2022-10-28T22:48:55.585Z,8.90
2022-10-28T22:51:23.290Z,7.53
2022-10-28T22:53:50.437Z,6.40
2022-10-28T22:56:20.362Z,9.02
2022-10-28T22:58:49.855Z,11.25
2022-10-28T23:01:18.467Z,10.65
2022-10-28T23:03:47.389Z,10.40
2022-10-28T23:06:17.703Z,5.43
2022-10-28T23:08:45.024Z,6.25
2022-10-28T23:11:12.510Z,10.77
2022-10-28T23:13:39.832Z,5.45
2022-10-28T23:16:08.455Z,7.38
2022-10-28T23:18:35.607Z,5.15
2022-10-28T23:21:13.488Z,6.75
2022-10-28T23:23:41.521Z,4.80
2022-10-28T23:26:10.746Z,6.50
2022-10-28T23:28:37.558Z,7.72
2022-10-28T23:31:05.570Z,6.57
2022-10-28T23:33:34.046Z,7.25
2022-10-28T23:36:03.673Z,7.57
2022-10-28T23:38:31.824Z,8.55
2022-10-28T23:40:59.785Z,4.15
2022-10-28T23:43:27.664Z,5.13
2022-10-28T23:45:54.859Z,7.72
2022-10-28T23:48:22.314Z,7.35
2022-10-28T23:50:49.573Z,4.47
2022-10-28T23:53:16.924Z,15.02
2022-10-28T23:55:44.668Z,4.90
2022-10-28T23:58:12.523Z,8.23
